Lawton, Oklahoma
Current Conditions -  °F | °C
As of 10:08 AM on Sunday 21 Dec 2014 (Local Time) from KFSI Reporting Station
Overcast Overcast  
Wind Chill:   Ceiling: 800
Heat Index:   Visibility: 10mi
Dew Point:   Wind: 17mph
Humidity: 93%   Direction: 180°S
Pressure: 29.95"   Gusts: 26mph
Location:  34.61°N, 98.39°W
Report Text: KFSI 211608Z AUTO 18015G23KT 10SM OVC008 08/07 A2995 RMK AO2
Loading
Personal Weather Stations






























Interactive Weather Map New forecast layout! Learn more

10-Day Weather Forecast

Advertisements
Track Severe Weather on mobile